createdAt,value
2023-04-09T00:00:41.520Z,9.97
2023-04-09T00:03:08.257Z,9.96
2023-04-09T00:05:39.797Z,9.93
2023-04-09T00:08:07.279Z,9.94
2023-04-09T00:10:33.749Z,9.91
2023-04-09T00:13:00.218Z,9.92
2023-04-09T00:15:31.327Z,9.91
2023-04-09T00:17:58.284Z,9.91
2023-04-09T00:20:24.789Z,9.89
2023-04-09T00:22:52.305Z,9.86
2023-04-09T00:25:19.883Z,9.84
2023-04-09T00:27:46.600Z,9.83
2023-04-09T00:30:13.053Z,9.83
2023-04-09T00:32:39.513Z,9.84
2023-04-09T00:35:06.621Z,9.84
2023-04-09T00:37:33.087Z,9.84
2023-04-09T00:39:59.542Z,9.83
2023-04-09T00:42:26.543Z,9.82
2023-04-09T00:44:52.992Z,9.83
2023-04-09T00:47:19.675Z,9.82
2023-04-09T00:49:46.267Z,9.81
2023-04-09T00:52:12.768Z,9.79
2023-04-09T00:54:39.291Z,9.79
2023-04-09T00:57:06.066Z,9.80
2023-04-09T00:59:32.733Z,9.78
2023-04-09T01:01:59.244Z,9.77
2023-04-09T01:04:25.830Z,9.77
2023-04-09T01:06:55.821Z,9.77
2023-04-09T01:09:28.601Z,9.74
2023-04-09T01:12:45.644Z,9.75
2023-04-09T01:15:18.255Z,9.73
2023-04-09T01:18:10.193Z,9.72
2023-04-09T01:20:40.698Z,9.71
2023-04-09T01:23:10.347Z,9.72
2023-04-09T01:25:57.942Z,9.71
2023-04-09T01:28:32.158Z,9.70
2023-04-09T01:31:09.370Z,9.70
2023-04-09T01:33:38.072Z,9.70
2023-04-09T01:36:06.255Z,9.69
2023-04-09T01:38:35.291Z,9.69
2023-04-09T01:41:03.821Z,9.68
2023-04-09T01:43:31.965Z,9.67
2023-04-09T01:46:01.342Z,9.67
2023-04-09T01:48:30.275Z,9.67
2023-04-09T01:50:58.494Z,9.66
2023-04-09T01:53:28.322Z,9.66
2023-04-09T01:55:56.792Z,9.66
2023-04-09T01:58:24.949Z,9.68
2023-04-09T02:01:00.034Z,9.65
2023-04-09T02:03:34.082Z,9.64
2023-04-09T02:06:09.951Z,9.65
2023-04-09T02:08:37.599Z,9.65
2023-04-09T02:11:06.744Z,9.64
2023-04-09T02:13:34.931Z,9.63
2023-04-09T02:16:02.055Z,9.61
2023-04-09T02:18:30.428Z,9.61
2023-04-09T02:20:58.593Z,9.59
2023-04-09T02:23:25.883Z,9.59
2023-04-09T02:25:53.702Z,9.59
2023-04-09T02:28:20.224Z,9.60
2023-04-09T02:30:46.794Z,9.59
2023-04-09T02:33:13.299Z,9.59
2023-04-09T02:35:39.890Z,9.58
2023-04-09T02:38:08.069Z,9.58
2023-04-09T02:40:34.492Z,9.57
2023-04-09T02:43:00.972Z,9.58
2023-04-09T02:45:27.413Z,9.56
2023-04-09T02:47:53.866Z,9.56
2023-04-09T02:50:20.469Z,9.57
2023-04-09T02:52:47.592Z,9.57
2023-04-09T02:55:14.792Z,9.56
2023-04-09T02:57:41.566Z,9.57
2023-04-09T03:00:08.800Z,9.56
2023-04-09T03:02:35.362Z,9.57
2023-04-09T03:05:02.825Z,9.58
2023-04-09T03:07:29.253Z,9.58
2023-04-09T03:09:55.762Z,9.55
2023-04-09T03:12:22.266Z,9.55
2023-04-09T03:14:48.717Z,9.54
2023-04-09T03:17:15.358Z,9.54
2023-04-09T03:19:41.776Z,9.53
2023-04-09T03:22:08.191Z,9.51
2023-04-09T03:24:34.704Z,9.51
2023-04-09T03:27:01.493Z,9.51
2023-04-09T03:29:27.932Z,9.49
2023-04-09T03:31:54.365Z,9.48
2023-04-09T03:34:21.019Z,9.46
2023-04-09T03:36:47.511Z,9.45
2023-04-09T03:39:13.918Z,9.47
2023-04-09T03:41:40.583Z,9.47
2023-04-09T03:44:07.061Z,9.46
2023-04-09T03:46:33.489Z,9.47
2023-04-09T03:48:59.971Z,9.48
2023-04-09T03:51:27.209Z,9.48
2023-04-09T03:53:53.626Z,9.47
2023-04-09T03:56:20.050Z,9.46
2023-04-09T03:58:48.427Z,9.43
2023-04-09T04:01:15.123Z,9.43
2023-04-09T04:03:41.831Z,9.42
2023-04-09T04:06:08.324Z,9.43
2023-04-09T04:08:34.736Z,9.43
2023-04-09T04:11:05.206Z,9.41
2023-04-09T04:13:31.952Z,9.40
2023-04-09T04:15:58.521Z,9.41
2023-04-09T04:18:24.991Z,9.40
2023-04-09T04:20:51.632Z,9.38
2023-04-09T04:23:18.166Z,9.39
2023-04-09T04:25:44.644Z,9.38
2023-04-09T04:28:11.084Z,9.35
2023-04-09T04:30:37.566Z,9.34
2023-04-09T04:33:04.049Z,9.34
2023-04-09T04:35:30.616Z,9.34
2023-04-09T04:37:57.050Z,9.34
2023-04-09T04:40:23.716Z,9.33
2023-04-09T04:42:50.226Z,9.34
2023-04-09T04:45:16.704Z,9.33
2023-04-09T04:47:43.219Z,9.33
2023-04-09T04:50:10.004Z,9.32
2023-04-09T04:52:36.916Z,9.32
2023-04-09T04:55:06.845Z,9.30
2023-04-09T04:57:33.282Z,9.29
2023-04-09T04:59:59.715Z,9.29
2023-04-09T05:02:26.288Z,9.29
2023-04-09T05:04:52.806Z,9.27
2023-04-09T05:07:19.242Z,9.27
2023-04-09T05:09:45.795Z,9.27
2023-04-09T05:12:12.349Z,9.26
2023-04-09T05:14:38.804Z,9.26
2023-04-09T05:17:05.303Z,9.25
2023-04-09T05:19:31.836Z,9.27
2023-04-09T05:21:58.295Z,9.29
2023-04-09T05:24:24.775Z,9.27
2023-04-09T05:26:51.281Z,9.26
2023-04-09T05:29:17.783Z,9.24
2023-04-09T05:31:44.277Z,9.26
2023-04-09T05:34:11.303Z,9.27
2023-04-09T05:36:37.780Z,9.28
2023-04-09T05:39:04.220Z,9.29
2023-04-09T05:41:30.681Z,9.29
2023-04-09T05:43:58.812Z,9.28
2023-04-09T05:46:27.339Z,9.26
2023-04-09T05:48:53.972Z,9.26
2023-04-09T05:51:20.670Z,9.26
2023-04-09T05:53:47.056Z,9.26
2023-04-09T05:56:15.748Z,9.27
2023-04-09T05:58:43.037Z,9.27
2023-04-09T06:01:10.362Z,9.26
2023-04-09T06:03:37.129Z,9.25
2023-04-09T06:06:03.795Z,9.22
2023-04-09T06:08:30.315Z,9.24
2023-04-09T06:10:56.756Z,9.26
2023-04-09T06:13:23.164Z,9.27
2023-04-09T06:15:49.711Z,9.27
2023-04-09T06:18:16.308Z,9.29
2023-04-09T06:20:42.728Z,9.32
2023-04-09T06:23:09.243Z,9.34
2023-04-09T06:25:36.656Z,9.36
2023-04-09T06:28:03.226Z,9.37
2023-04-09T06:30:30.982Z,9.38
2023-04-09T06:32:57.704Z,9.39
2023-04-09T06:35:24.332Z,9.43
2023-04-09T06:37:50.932Z,9.43
2023-04-09T06:40:17.571Z,9.45
2023-04-09T06:42:44.015Z,9.48
2023-04-09T06:45:10.618Z,9.52
2023-04-09T06:47:37.217Z,9.57
2023-04-09T06:50:04.223Z,9.60
2023-04-09T06:52:30.845Z,9.63
2023-04-09T06:54:57.313Z,9.69
2023-04-09T06:57:23.763Z,9.72
2023-04-09T06:59:50.318Z,9.71
2023-04-09T07:02:16.978Z,9.70
2023-04-09T07:04:43.934Z,9.70
2023-04-09T07:07:10.615Z,9.75
2023-04-09T07:09:37.080Z,9.79
2023-04-09T07:12:03.573Z,9.80
2023-04-09T07:14:30.148Z,9.83
2023-04-09T07:16:56.622Z,9.88
2023-04-09T07:19:23.062Z,9.96
2023-04-09T07:21:49.485Z,10.05
2023-04-09T07:24:15.899Z,10.09
2023-04-09T07:26:42.746Z,10.13
2023-04-09T07:29:09.276Z,10.22
2023-04-09T07:31:36.215Z,10.30
2023-04-09T07:34:02.743Z,10.35
2023-04-09T07:36:29.423Z,10.42
2023-04-09T07:38:56.142Z,10.53
2023-04-09T07:41:22.721Z,10.62
2023-04-09T07:43:49.184Z,10.71
2023-04-09T07:46:20.751Z,10.75
2023-04-09T07:48:48.424Z,10.81
2023-04-09T07:51:15.331Z,10.89
2023-04-09T07:53:41.795Z,11.01
2023-04-09T07:56:08.262Z,11.04
2023-04-09T07:58:34.875Z,11.09
2023-04-09T08:01:01.501Z,11.13
2023-04-09T08:03:28.203Z,11.16
2023-04-09T08:05:55.082Z,11.21
2023-04-09T08:08:21.809Z,11.20
2023-04-09T08:10:48.333Z,11.22
2023-04-09T08:13:14.880Z,11.35
2023-04-09T08:15:41.579Z,11.46
2023-04-09T08:18:08.296Z,11.59
2023-04-09T08:20:34.916Z,11.69
2023-04-09T08:23:01.854Z,11.72
2023-04-09T08:25:28.704Z,11.70
2023-04-09T08:27:55.167Z,11.65
2023-04-09T08:32:48.533Z,11.65
2023-04-09T08:35:15.934Z,11.66
2023-04-09T08:37:43.672Z,11.69
2023-04-09T08:40:12.141Z,11.70
2023-04-09T08:42:47.512Z,11.80
2023-04-09T08:45:14.054Z,12.01
2023-04-09T08:47:44.359Z,12.25
2023-04-09T08:50:11.230Z,12.46
2023-04-09T08:52:38.331Z,12.46
2023-04-09T08:55:05.296Z,12.53
2023-04-09T08:57:39.767Z,12.53
2023-04-09T09:00:07.187Z,12.46
2023-04-09T09:02:33.749Z,12.41
2023-04-09T09:05:01.070Z,12.39
2023-04-09T09:07:31.301Z,12.56
2023-04-09T09:10:05.929Z,12.67
2023-04-09T09:12:36.547Z,12.70
2023-04-09T09:15:04.604Z,12.81
2023-04-09T09:17:31.282Z,12.81
2023-04-09T09:19:58.737Z,12.77
2023-04-09T09:22:25.912Z,12.81
2023-04-09T09:24:53.579Z,12.96
2023-04-09T09:27:39.192Z,12.90
2023-04-09T09:30:07.202Z,12.90
2023-04-09T09:32:34.151Z,12.96
2023-04-09T09:35:06.242Z,13.02
2023-04-09T09:37:34.189Z,13.14
2023-04-09T09:40:01.272Z,13.12
2023-04-09T09:42:27.787Z,13.06
2023-04-09T09:44:55.427Z,13.00
2023-04-09T09:47:23.211Z,13.00
2023-04-09T09:49:50.352Z,13.11
2023-04-09T09:52:24.736Z,13.28
2023-04-09T09:54:54.842Z,13.41
2023-04-09T09:57:25.096Z,13.52
2023-04-09T09:59:55.501Z,13.65
2023-04-09T10:02:30.856Z,13.68
2023-04-09T10:05:01.342Z,13.75
2023-04-09T10:07:28.778Z,13.77
2023-04-09T10:09:57.680Z,13.79
2023-04-09T10:12:25.408Z,13.83
2023-04-09T10:15:04.487Z,13.85
2023-04-09T10:17:32.485Z,13.91
2023-04-09T10:20:11.685Z,14.00
2023-04-09T10:22:39.285Z,13.92
2023-04-09T10:25:06.621Z,13.72
2023-04-09T10:27:33.192Z,13.70
2023-04-09T10:30:02.730Z,13.88
2023-04-09T10:32:36.147Z,13.87
2023-04-09T10:35:04.157Z,13.96
2023-04-09T10:37:31.810Z,14.11
2023-04-09T10:39:58.741Z,14.16
2023-04-09T10:42:41.021Z,14.25
2023-04-09T10:45:12.372Z,14.36
2023-04-09T10:47:40.706Z,14.44
2023-04-09T10:50:28.103Z,14.51
2023-04-09T10:52:57.374Z,14.61
2023-04-09T10:55:33.310Z,14.57
2023-04-09T10:57:59.889Z,14.77
2023-04-09T11:00:26.395Z,15.02
2023-04-09T11:03:22.555Z,15.00
2023-04-09T11:05:55.445Z,14.81
2023-04-09T11:08:22.582Z,14.72
2023-04-09T11:10:51.902Z,14.81
2023-04-09T11:13:20.942Z,15.06
2023-04-09T11:15:47.741Z,15.29
2023-04-09T11:18:25.566Z,15.37
2023-04-09T11:21:00.394Z,15.33
2023-04-09T11:23:27.892Z,15.32
2023-04-09T11:25:55.400Z,15.40
2023-04-09T11:28:23.038Z,15.52
2023-04-09T11:30:52.894Z,15.64
2023-04-09T11:33:20.420Z,15.68
2023-04-09T11:35:47.209Z,15.73
2023-04-09T11:38:13.954Z,15.54
2023-04-09T11:40:47.837Z,15.63
2023-04-09T11:43:18.851Z,15.73
2023-04-09T11:45:48.252Z,15.94
2023-04-09T11:48:15.960Z,16.12
2023-04-09T11:50:42.849Z,16.06
2023-04-09T11:53:37.262Z,15.76
2023-04-09T11:56:04.180Z,15.60
2023-04-09T11:58:30.668Z,15.73
2023-04-09T12:01:00.430Z,15.86
2023-04-09T12:03:34.286Z,15.97
2023-04-09T12:06:02.735Z,15.77
2023-04-09T12:08:29.412Z,15.62
2023-04-09T12:10:56.020Z,15.50
2023-04-09T12:13:32.629Z,15.38
2023-04-09T12:16:01.141Z,15.45
2023-04-09T12:18:27.633Z,15.65
2023-04-09T12:20:54.430Z,15.77
2023-04-09T12:23:20.929Z,15.87
2023-04-09T12:25:48.033Z,15.97
2023-04-09T12:28:18.004Z,16.06
2023-04-09T12:30:45.404Z,16.24
2023-04-09T12:33:12.114Z,16.38
2023-04-09T12:35:39.026Z,16.34
2023-04-09T12:38:06.138Z,16.31
2023-04-09T12:40:32.742Z,16.35
2023-04-09T12:42:59.270Z,16.35
2023-04-09T12:45:25.888Z,16.45
2023-04-09T12:47:52.870Z,16.60
2023-04-09T12:50:19.547Z,16.66
2023-04-09T12:52:46.300Z,16.67
2023-04-09T12:55:14.200Z,16.82
2023-04-09T12:57:44.470Z,16.81
2023-04-09T13:00:11.850Z,16.82
2023-04-09T13:02:38.615Z,16.89
2023-04-09T13:05:05.591Z,16.92
2023-04-09T13:07:32.131Z,16.92
2023-04-09T13:09:59.007Z,17.00
2023-04-09T13:12:25.748Z,17.04
2023-04-09T13:14:54.251Z,16.95
2023-04-09T13:17:20.991Z,16.97
2023-04-09T13:19:47.650Z,16.97
2023-04-09T13:22:14.562Z,17.01
2023-04-09T13:24:41.125Z,17.16
2023-04-09T13:27:09.662Z,17.18
2023-04-09T13:29:36.688Z,17.19
2023-04-09T13:32:07.097Z,17.24
2023-04-09T13:34:35.145Z,17.29
2023-04-09T13:37:04.964Z,17.24
2023-04-09T13:39:31.437Z,17.35
2023-04-09T13:41:57.952Z,17.36
2023-04-09T13:44:25.668Z,17.34
2023-04-09T13:46:52.415Z,17.34
2023-04-09T13:49:18.915Z,17.41
2023-04-09T13:51:45.683Z,17.38
2023-04-09T13:54:12.544Z,17.34
2023-04-09T13:56:39.435Z,17.35
2023-04-09T13:59:06.383Z,17.39
2023-04-09T14:01:34.540Z,17.35
2023-04-09T14:04:01.440Z,17.30
2023-04-09T14:06:28.054Z,17.29
2023-04-09T14:08:55.839Z,17.35
2023-04-09T14:11:22.508Z,17.34
2023-04-09T14:13:49.004Z,17.27
2023-04-09T14:16:15.664Z,17.35
2023-04-09T14:18:42.174Z,17.50
2023-04-09T14:21:10.163Z,17.53
2023-04-09T14:23:37.189Z,17.58
2023-04-09T14:26:04.460Z,17.60
2023-04-09T14:28:32.123Z,17.61
2023-04-09T14:30:59.748Z,17.58
2023-04-09T14:33:27.042Z,17.52
2023-04-09T14:35:53.641Z,17.41
2023-04-09T14:38:20.430Z,17.43
2023-04-09T14:40:46.890Z,17.42
2023-04-09T14:43:13.457Z,17.42
2023-04-09T14:45:40.475Z,17.45
2023-04-09T14:48:07.040Z,17.48
2023-04-09T14:50:34.008Z,17.60
2023-04-09T14:53:01.156Z,17.70
2023-04-09T14:55:28.330Z,17.67
2023-04-09T14:57:54.936Z,17.60
2023-04-09T15:00:22.596Z,17.53
2023-04-09T15:02:49.273Z,17.43
2023-04-09T15:05:16.089Z,17.42
2023-04-09T15:07:43.688Z,17.47
2023-04-09T15:10:10.998Z,17.49
2023-04-09T15:12:37.605Z,17.43
2023-04-09T15:15:08.298Z,17.43
2023-04-09T15:17:35.266Z,17.38
2023-04-09T15:20:02.041Z,17.42
2023-04-09T15:22:28.526Z,17.46
2023-04-09T15:24:55.076Z,17.48
2023-04-09T15:27:21.501Z,17.46
2023-04-09T15:29:47.934Z,17.44
2023-04-09T15:32:14.362Z,17.38
2023-04-09T15:34:41.282Z,17.33
2023-04-09T15:37:07.766Z,17.35
2023-04-09T15:39:35.093Z,17.40
2023-04-09T15:42:02.003Z,17.42
2023-04-09T15:44:28.510Z,17.36
2023-04-09T15:46:54.993Z,17.33
2023-04-09T15:49:22.027Z,17.27
2023-04-09T15:51:48.714Z,17.27
2023-04-09T15:54:15.568Z,17.33
2023-04-09T15:56:42.206Z,17.32
2023-04-09T15:59:08.954Z,17.26
2023-04-09T16:01:36.654Z,17.25
2023-04-09T16:04:04.886Z,17.35
2023-04-09T16:06:31.648Z,17.37
2023-04-09T16:08:58.104Z,17.33
2023-04-09T16:11:24.852Z,17.26
2023-04-09T16:13:51.380Z,17.16
2023-04-09T16:16:18.021Z,17.20
2023-04-09T16:18:44.582Z,17.31
2023-04-09T16:21:11.253Z,17.35
2023-04-09T16:23:38.506Z,17.35
2023-04-09T16:26:05.579Z,17.36
2023-04-09T16:28:32.086Z,17.33
2023-04-09T16:30:59.455Z,17.27
2023-04-09T16:33:26.244Z,17.20
2023-04-09T16:35:52.874Z,17.13
2023-04-09T16:38:19.389Z,17.12
2023-04-09T16:40:45.993Z,17.09
2023-04-09T16:43:12.536Z,16.99
2023-04-09T16:45:39.034Z,16.82
2023-04-09T16:48:10.801Z,16.63
2023-04-09T16:50:38.410Z,16.47
2023-04-09T16:53:04.914Z,16.41
2023-04-09T16:55:31.441Z,16.33
2023-04-09T16:57:58.872Z,16.21
2023-04-09T17:00:25.599Z,16.13
2023-04-09T17:02:52.421Z,16.15
2023-04-09T17:05:19.125Z,16.30
2023-04-09T17:07:45.586Z,16.48
2023-04-09T17:10:12.179Z,16.57
2023-04-09T17:12:38.915Z,16.62
2023-04-09T17:15:05.819Z,16.53
2023-04-09T17:17:33.385Z,16.39
2023-04-09T17:20:01.591Z,16.33
2023-04-09T17:22:28.253Z,16.31
2023-04-09T17:24:54.765Z,16.25
2023-04-09T17:27:21.218Z,16.09
2023-04-09T17:29:47.690Z,15.93
2023-04-09T17:32:14.108Z,15.84
2023-04-09T17:34:40.786Z,15.73
2023-04-09T17:37:07.283Z,15.65
2023-04-09T17:39:33.762Z,15.59
2023-04-09T17:42:00.814Z,15.46
2023-04-09T17:44:27.313Z,15.42
2023-04-09T17:46:53.998Z,15.35
2023-04-09T17:49:22.413Z,15.29
2023-04-09T17:51:48.999Z,15.23
2023-04-09T17:54:15.598Z,15.15
2023-04-09T17:56:42.005Z,15.07
2023-04-09T17:59:08.526Z,15.00
2023-04-09T18:01:35.168Z,14.91
2023-04-09T18:04:02.099Z,14.80
2023-04-09T18:06:29.263Z,14.74
2023-04-09T18:08:55.743Z,14.69
2023-04-09T18:11:23.692Z,14.64
2023-04-09T18:13:53.109Z,14.56
2023-04-09T18:16:20.913Z,14.52
2023-04-09T18:18:47.528Z,14.46
2023-04-09T18:21:15.202Z,14.42
2023-04-09T18:23:42.032Z,14.37
2023-04-09T18:26:08.526Z,14.31
2023-04-09T18:28:35.665Z,14.25
2023-04-09T18:31:02.312Z,14.18
2023-04-09T18:33:28.880Z,14.11
2023-04-09T18:35:55.344Z,14.05
2023-04-09T18:38:21.867Z,13.98
2023-04-09T18:40:48.343Z,13.92
2023-04-09T18:43:14.765Z,13.85
2023-04-09T18:45:42.558Z,13.79
2023-04-09T18:48:09.120Z,13.74
2023-04-09T18:50:35.747Z,13.68
2023-04-09T18:53:03.632Z,13.63
2023-04-09T18:55:30.731Z,13.55
2023-04-09T18:57:57.472Z,13.50
2023-04-09T19:00:24.181Z,13.43
2023-04-09T19:02:50.942Z,13.38
2023-04-09T19:05:17.767Z,13.34
2023-04-09T19:07:44.210Z,13.29
2023-04-09T19:10:10.845Z,13.26
2023-04-09T19:12:37.881Z,13.21
2023-04-09T19:15:04.916Z,13.15
2023-04-09T19:17:32.222Z,13.09
2023-04-09T19:19:58.707Z,13.05
2023-04-09T19:22:25.136Z,13.00
2023-04-09T19:24:51.718Z,12.95
2023-04-09T19:27:18.663Z,12.88
2023-04-09T19:29:46.581Z,12.83
2023-04-09T19:32:13.370Z,12.79
2023-04-09T19:34:39.842Z,12.72
2023-04-09T19:37:06.305Z,12.69
2023-04-09T19:39:32.735Z,12.66
2023-04-09T19:41:59.242Z,12.63
2023-04-09T19:44:26.203Z,12.59
2023-04-09T19:46:52.755Z,12.54
2023-04-09T19:49:19.280Z,12.49
2023-04-09T19:51:45.758Z,12.45
2023-04-09T19:54:12.208Z,12.38
2023-04-09T19:56:38.635Z,12.35
2023-04-09T19:59:05.075Z,12.29
2023-04-09T20:01:31.744Z,12.24
2023-04-09T20:03:58.534Z,12.18
2023-04-09T20:06:26.036Z,12.14
2023-04-09T20:08:54.186Z,12.10
2023-04-09T20:11:20.942Z,12.09
2023-04-09T20:13:48.069Z,12.05
2023-04-09T20:16:15.276Z,12.03
2023-04-09T20:18:41.795Z,12.01
2023-04-09T20:21:08.668Z,11.99
2023-04-09T20:23:35.282Z,11.95
2023-04-09T20:26:02.650Z,11.93
2023-04-09T20:28:29.697Z,11.88
2023-04-09T20:30:56.638Z,11.84
2023-04-09T20:33:23.176Z,11.84
2023-04-09T20:35:50.425Z,11.82
2023-04-09T20:38:20.470Z,11.77
2023-04-09T20:40:47.171Z,11.74
2023-04-09T20:43:13.818Z,11.69
2023-04-09T20:45:40.657Z,11.65
2023-04-09T20:48:07.251Z,11.62
2023-04-09T20:50:33.999Z,11.59
2023-04-09T20:53:00.474Z,11.54
2023-04-09T20:55:26.973Z,11.52
2023-04-09T20:57:55.521Z,11.48
2023-04-09T21:00:22.363Z,11.46
2023-04-09T21:02:48.903Z,11.45
2023-04-09T21:05:22.571Z,11.42
2023-04-09T21:07:53.881Z,11.37
2023-04-09T21:10:20.466Z,11.32
2023-04-09T21:12:47.016Z,11.28
2023-04-09T21:15:13.590Z,11.24
2023-04-09T21:17:40.189Z,11.22
2023-04-09T21:20:07.126Z,11.19
2023-04-09T21:22:34.585Z,11.15
2023-04-09T21:25:03.026Z,11.12
2023-04-09T21:27:29.735Z,11.05
2023-04-09T21:29:56.256Z,11.00
2023-04-09T21:32:22.756Z,10.95
2023-04-09T21:34:49.238Z,10.91
2023-04-09T21:37:16.274Z,10.85
2023-04-09T21:39:43.211Z,10.81
2023-04-09T21:42:09.677Z,10.76
2023-04-09T21:44:36.279Z,10.71
2023-04-09T21:47:07.484Z,10.66
2023-04-09T21:49:39.019Z,10.61
2023-04-09T21:52:08.971Z,10.58
2023-04-09T21:54:36.042Z,10.54
2023-04-09T21:57:02.766Z,10.48
2023-04-09T21:59:29.279Z,10.43
2023-04-09T22:01:55.864Z,10.41
2023-04-09T22:04:22.358Z,10.37
2023-04-09T22:06:48.833Z,10.33
2023-04-09T22:09:15.475Z,10.30
2023-04-09T22:11:42.532Z,10.27
2023-04-09T22:14:08.989Z,10.24
2023-04-09T22:16:35.422Z,10.20
2023-04-09T22:19:02.333Z,10.15
2023-04-09T22:21:28.770Z,10.12
2023-04-09T22:23:56.098Z,10.08
2023-04-09T22:26:22.722Z,10.05
2023-04-09T22:28:50.270Z,10.02
2023-04-09T22:31:16.885Z,9.99
2023-04-09T22:33:43.356Z,9.94
2023-04-09T22:36:09.839Z,9.93
2023-04-09T22:38:36.339Z,9.89
2023-04-09T22:41:02.950Z,9.85
2023-04-09T22:43:29.394Z,9.81
2023-04-09T22:45:57.169Z,9.78
2023-04-09T22:48:23.705Z,9.76
2023-04-09T22:50:50.476Z,9.74
2023-04-09T22:53:20.734Z,9.71
2023-04-09T22:55:50.970Z,9.72
2023-04-09T22:58:18.253Z,9.71
2023-04-09T23:00:44.731Z,9.74
2023-04-09T23:03:11.347Z,9.76
2023-04-09T23:05:38.145Z,9.73
2023-04-09T23:08:05.049Z,9.75
2023-04-09T23:10:32.162Z,9.75
2023-04-09T23:12:58.674Z,9.75
2023-04-09T23:15:25.459Z,9.72
2023-04-09T23:17:52.298Z,9.72
2023-04-09T23:20:18.905Z,9.73
2023-04-09T23:22:49.021Z,9.72
2023-04-09T23:25:16.388Z,9.71
2023-04-09T23:27:43.303Z,9.70
2023-04-09T23:30:10.473Z,9.65
2023-04-09T23:32:37.190Z,9.65
2023-04-09T23:35:04.157Z,9.64
2023-04-09T23:37:30.769Z,9.62
2023-04-09T23:39:57.265Z,9.59
2023-04-09T23:42:23.932Z,9.59
2023-04-09T23:44:50.503Z,9.56
2023-04-09T23:47:17.405Z,9.52
2023-04-09T23:49:44.006Z,9.54
2023-04-09T23:52:10.528Z,9.54
2023-04-09T23:54:36.990Z,9.52
2023-04-09T23:57:03.536Z,9.51
2023-04-09T23:59:33.785Z,9.48
